Padre Island — WDB4436 — position and weather

sailwx.info

Track history (hours):
 
Tides and Currents Weather Stations Pressure Air Temp Water Temp Dewpoint Dewpoint Depression Visibility Wind Speed Wind Dir Waves Ship Positions

Padre Island

Owner: Great Lakes Dredge & Dock Company, Oak Brook, IL. More information available from US FCC via Universal Licensing System and Coast Guard Vessel Documentation Center.

Last reported at 2015-Mar-06 08:29 UTC. Time now 2015-Mar-06 14:16 UTC.
Position N 27°36' W 082°45'.

Length 86 m; draft 19.6 m.

Type: Dredging. MMSI: 367525000.

Date/timePositionNaut miles runAvg speedWind from/ knotsBaromVisibWave heightAir tempDewpointWater temp
2015-Mar-06 08:29N 27°36' W 082°45'0 0.0
2015-Mar-06 06:16N 27°36' W 082°45'1 1.1
2015-Mar-06 05:33N 27°36' W 082°46'0 0.0
2015-Mar-06 04:20N 27°36' W 082°46'0 0.0
2015-Mar-05 11:09N 27°36' W 082°46'4 0.4
2015-Mar-05 02:17N 27°36' W 082°50'0 0.5
2015-Mar-05 01:22N 27°36' W 082°49'3 0.3
2015-Mar-04 14:20N 27°36' W 082°46'0 0.1
2015-Mar-04 13:31N 27°36' W 082°46'0 0.0
2015-Mar-04 12:32N 27°36' W 082°46'2 1.3
2015-Mar-04 11:15N 27°37' W 082°48'3 4.1
2015-Mar-04 10:24N 27°36' W 082°52'5 1.7
2015-Mar-04 07:22N 27°36' W 082°46'4 0.3
2015-Mar-03 14:23N 27°36' W 082°51'4 1.3
2015-Mar-03 11:04N 27°36' W 082°46'0 0.0
2015-Mar-03 09:31N 27°36' W 082°46'1 0.9
2015-Mar-03 08:20N 27°37' W 082°47'4 4.0
2015-Mar-03 07:23N 27°36' W 082°51'0 0.1
2015-Mar-03 02:12N 27°36' W 082°52'5 0.3
2015-Mar-02 10:14N 27°36' W 082°46'  
Track history (hours):
 
Tides and Currents Weather Stations Pressure Air Temp Water Temp Dewpoint Dewpoint Depression Visibility Wind Speed Wind Dir Waves Ship Positions

Padre Island

Owner: Great Lakes Dredge & Dock Company, Oak Brook, IL. More information available from US FCC via Universal Licensing System and Coast Guard Vessel Documentation Center.

Last reported at 2015-Mar-06 08:29 UTC. Time now 2015-Mar-06 14:16 UTC.
Position N 27°36' W 082°45'.

Length 86 m; draft 19.6 m.

Type: Dredging. MMSI: 367525000.

Date/timePositionNaut miles runAvg speedWind from/ knotsBaromVisibWave heightAir tempDewpointWater temp
2015-Mar-06 08:29N 27°36' W 082°45'0 0.0
2015-Mar-06 06:16N 27°36' W 082°45'1 1.1
2015-Mar-06 05:33N 27°36' W 082°46'0 0.0
2015-Mar-06 04:20N 27°36' W 082°46'0 0.0
2015-Mar-05 11:09N 27°36' W 082°46'4 0.4
2015-Mar-05 02:17N 27°36' W 082°50'0 0.5
2015-Mar-05 01:22N 27°36' W 082°49'3 0.3
2015-Mar-04 14:20N 27°36' W 082°46'0 0.1
2015-Mar-04 13:31N 27°36' W 082°46'0 0.0
2015-Mar-04 12:32N 27°36' W 082°46'2 1.3
2015-Mar-04 11:15N 27°37' W 082°48'3 4.1
2015-Mar-04 10:24N 27°36' W 082°52'5 1.7
2015-Mar-04 07:22N 27°36' W 082°46'4 0.3
2015-Mar-03 14:23N 27°36' W 082°51'4 1.3
2015-Mar-03 11:04N 27°36' W 082°46'0 0.0
2015-Mar-03 09:31N 27°36' W 082°46'1 0.9
2015-Mar-03 08:20N 27°37' W 082°47'4 4.0
2015-Mar-03 07:23N 27°36' W 082°51'0 0.1
2015-Mar-03 02:12N 27°36' W 082°52'5 0.3
2015-Mar-02 10:14N 27°36' W 082°46'  

Dump ship's entire track history